Time;durP1;ratioP1;P1;durP2;ratioP2;P2;SDS_P1;SDS_P2;PMS_P1;PMS_P2;Temp;Humidity;BMP_temperature;BMP_pressure;BME280_temperature;BME280_humidity;BME280_pressure;Samples;Min_cycle;Max_cycle;Signal;HPM_P1;HPM_P2
2024/02/26 00:00:43;;;;;;;166.93;67.20;;;;;2.10;95661.00;;;;4990984;28;20445;-86
2024/02/26 00:03:35;;;;;;;160.53;63.87;;;;;2.80;95662.00;;;;5003137;28;20429;-85
2024/02/26 00:06:24;;;;;;;160.60;62.53;;;;;2.70;95653.00;;;;4969855;28;20438;-84
2024/02/26 00:09:13;;;;;;;164.07;66.67;;;;;3.10;95661.00;;;;5000153;28;20974;-84
2024/02/26 00:12:04;;;;;;;155.47;62.43;;;;;2.50;95655.00;;;;4993080;28;20450;-84
2024/02/26 00:14:53;;;;;;;172.17;70.33;;;;;2.10;95647.00;;;;4987195;28;20440;-83
2024/02/26 00:17:43;;;;;;;168.03;67.13;;;;;2.20;95641.00;;;;4997173;28;20433;-84
2024/02/26 00:20:32;;;;;;;157.17;62.90;;;;;2.70;95649.00;;;;5000672;28;20981;-84
2024/02/26 00:23:21;;;;;;;154.87;62.77;;;;;3.00;95642.00;;;;4992997;28;20421;-83
2024/02/26 00:26:10;;;;;;;153.60;61.83;;;;;2.80;95639.00;;;;4990860;28;20446;-84
2024/02/26 00:29:01;;;;;;;151.27;61.23;;;;;2.60;95627.00;;;;4991876;28;20436;-84
2024/02/26 00:31:50;;;;;;;151.23;62.73;;;;;1.70;95623.00;;;;4991805;28;20473;-82
2024/02/26 00:34:39;;;;;;;143.50;59.73;;;;;1.90;95621.00;;;;4992800;28;20432;-84
2024/02/26 00:37:28;;;;;;;141.57;59.03;;;;;2.40;95622.00;;;;4998063;28;20451;-86
2024/02/26 00:40:17;;;;;;;144.30;59.40;;;;;2.80;95630.00;;;;5010890;28;20454;-84
2024/02/26 00:43:07;;;;;;;152.90;62.03;;;;;2.90;95624.00;;;;4994099;28;20445;-84
2024/02/26 00:45:57;;;;;;;153.23;63.67;;;;;2.20;95618.00;;;;4999915;28;20430;-83
2024/02/26 00:48:46;;;;;;;154.50;64.17;;;;;2.00;95617.00;;;;5005797;28;20425;-84
2024/02/26 00:51:35;;;;;;;141.77;60.03;;;;;2.00;95610.00;;;;4988368;28;20655;-85
2024/02/26 00:54:24;;;;;;;151.40;63.23;;;;;2.20;95602.00;;;;4995667;28;20874;-86
2024/02/26 00:57:14;;;;;;;136.70;57.37;;;;;2.70;95604.00;;;;5003640;28;20426;-84
2024/02/26 01:00:03;;;;;;;150.53;61.90;;;;;2.30;95601.00;;;;4992112;28;20458;-84
2024/02/26 01:02:53;;;;;;;153.43;64.43;;;;;2.00;95614.00;;;;4964114;28;20424;-84
2024/02/26 01:05:43;;;;;;;143.70;60.97;;;;;2.40;95606.00;;;;4990205;28;20451;-86
2024/02/26 01:08:32;;;;;;;142.60;59.13;;;;;2.50;95613.00;;;;4988180;28;20848;-84
2024/02/26 01:11:21;;;;;;;143.20;61.40;;;;;2.60;95606.00;;;;4990106;28;20469;-84
2024/02/26 01:14:10;;;;;;;147.97;63.27;;;;;2.40;95606.00;;;;5006063;28;20453;-83
2024/02/26 01:16:59;;;;;;;148.30;62.63;;;;;1.70;95596.00;;;;4985624;28;20443;-86
2024/02/26 01:19:50;;;;;;;169.67;71.93;;;;;1.90;95589.00;;;;4998020;28;20454;-84
2024/02/26 01:22:40;;;;;;;145.47;60.00;;;;;2.20;95586.00;;;;4995216;28;20436;-83
2024/02/26 01:25:29;;;;;;;148.47;61.00;;;;;2.30;95572.00;;;;4987537;28;20434;-84
2024/02/26 01:28:18;;;;;;;147.27;60.20;;;;;2.50;95571.00;;;;4992229;28;20444;-83
2024/02/26 01:31:08;;;;;;;149.23;61.37;;;;;2.20;95577.00;;;;4997852;28;20480;-85
2024/02/26 01:33:57;;;;;;;142.63;59.07;;;;;1.40;95573.00;;;;4997025;28;20442;-86
2024/02/26 01:36:48;;;;;;;154.93;64.60;;;;;1.90;95563.00;;;;4985965;28;20797;-86
2024/02/26 01:39:37;;;;;;;150.67;61.67;;;;;2.20;95555.00;;;;4990828;28;20457;-83
2024/02/26 01:42:26;;;;;;;148.33;59.73;;;;;2.20;95556.00;;;;4995790;28;20411;-86
2024/02/26 01:45:21;;;;;;;146.00;59.37;;;;;2.20;95554.00;;;;4985981;28;20458;-86
2024/02/26 01:48:11;;;;;;;141.60;58.70;;;;;2.30;95553.00;;;;4992710;28;20422;-86
2024/02/26 01:51:00;;;;;;;147.53;60.30;;;;;2.00;95553.00;;;;4989319;28;20504;-84
2024/02/26 01:53:50;;;;;;;161.47;66.50;;;;;2.00;95561.00;;;;5013375;28;20444;-82
2024/02/26 01:56:41;;;;;;;144.27;60.43;;;;;1.50;95556.00;;;;4998231;28;20432;-84
2024/02/26 01:59:30;;;;;;;143.03;59.13;;;;;1.90;95564.00;;;;4991726;28;20441;-84
2024/02/26 02:02:19;;;;;;;141.83;58.57;;;;;2.30;95565.00;;;;4999552;28;20942;-84
2024/02/26 02:05:09;;;;;;;145.37;60.10;;;;;2.30;95554.00;;;;5001592;28;20437;-85
2024/02/26 02:07:58;;;;;;;150.37;61.07;;;;;2.10;95538.00;;;;4965104;28;20445;-85
2024/02/26 02:10:49;;;;;;;160.40;64.87;;;;;2.20;95553.00;;;;4991124;28;20446;-84
2024/02/26 02:13:38;;;;;;;245.90;120.10;;;;;2.00;95544.00;;;;4994469;28;20724;-82
2024/02/26 02:16:27;;;;;;;144.80;58.97;;;;;1.80;95540.00;;;;4986944;28;20422;-84
2024/02/26 02:19:16;;;;;;;151.27;60.67;;;;;1.70;95553.00;;;;5001961;28;20461;-84
2024/02/26 02:22:07;;;;;;;152.47;62.07;;;;;1.40;95542.00;;;;4989264;28;20422;-84
2024/02/26 02:24:56;;;;;;;153.20;62.13;;;;;1.90;95548.00;;;;5004639;28;20420;-84
2024/02/26 02:27:45;;;;;;;154.00;63.23;;;;;2.10;95541.00;;;;4999970;28;20438;-84
2024/02/26 02:30:35;;;;;;;140.43;57.70;;;;;1.90;95537.00;;;;4992212;28;20457;-84
2024/02/26 02:33:27;;;;;;;143.37;59.20;;;;;2.10;95526.00;;;;4992422;28;20468;-85
2024/02/26 02:36:16;;;;;;;149.67;60.10;;;;;2.00;95528.00;;;;4992330;28;20437;-85
2024/02/26 02:39:08;;;;;;;149.37;60.47;;;;;1.80;95537.00;;;;4981201;28;20438;-85
2024/02/26 02:41:57;;;;;;;151.30;61.80;;;;;1.90;95533.00;;;;5005697;28;20433;-84
2024/02/26 02:44:46;;;;;;;156.73;62.97;;;;;1.90;95536.00;;;;5004321;28;20426;-84
2024/02/26 02:47:38;;;;;;;150.23;60.33;;;;;2.20;95526.00;;;;4996943;28;20426;-83
2024/02/26 02:50:28;;;;;;;149.63;58.30;;;;;2.20;95538.00;;;;4987502;28;20438;-86
2024/02/26 02:53:18;;;;;;;149.03;60.50;;;;;2.20;95536.00;;;;5002727;28;20488;-84
2024/02/26 02:56:09;;;;;;;149.80;61.07;;;;;1.70;95532.00;;;;4996596;28;20423;-85
2024/02/26 02:58:58;;;;;;;146.20;58.43;;;;;2.00;95532.00;;;;5005600;28;20438;-83
2024/02/26 03:01:47;;;;;;;160.07;64.23;;;;;2.00;95541.00;;;;4996524;28;20439;-83
2024/02/26 03:04:36;;;;;;;153.20;63.43;;;;;2.10;95526.00;;;;4998548;28;20434;-84
2024/02/26 03:07:25;;;;;;;141.77;59.17;;;;;1.90;95524.00;;;;4986125;28;20429;-83
2024/02/26 03:10:15;;;;;;;145.73;61.10;;;;;1.80;95522.00;;;;4992133;28;20446;-86
2024/02/26 03:13:06;;;;;;;137.87;57.90;;;;;1.90;95515.00;;;;4997290;28;20470;-84
2024/02/26 03:15:55;;;;;;;145.53;62.30;;;;;0.90;95513.00;;;;4997106;28;20445;-84
2024/02/26 03:18:45;;;;;;;142.23;60.17;;;;;1.40;95528.00;;;;5006855;28;20433;-87
2024/02/26 03:21:34;;;;;;;136.43;57.83;;;;;1.70;95511.00;;;;4992162;28;20673;-85
2024/02/26 03:24:23;;;;;;;141.13;60.00;;;;;1.80;95522.00;;;;4995356;28;20460;-87
2024/02/26 03:27:12;;;;;;;140.70;58.77;;;;;1.80;95507.00;;;;4999424;28;20939;-86
2024/02/26 03:30:03;;;;;;;144.57;59.57;;;;;1.20;95498.00;;;;5005321;28;20455;-86
2024/02/26 03:32:52;;;;;;;153.33;63.43;;;;;1.30;95501.00;;;;4988850;28;20479;-85
2024/02/26 03:35:42;;;;;;;147.53;61.03;;;;;1.10;95507.00;;;;4991824;28;20453;-83
2024/02/26 03:38:31;;;;;;;143.83;59.43;;;;;1.50;95507.00;;;;4995720;28;20456;-86
2024/02/26 03:41:20;;;;;;;213.10;106.40;;;-0.30;99.90;1.90;95508.00;;;;4999894;28;20425;-82
2024/02/26 03:44:09;;;;;;;149.47;61.37;;;-0.20;99.90;2.00;95501.00;;;;5011401;28;20427;-83
2024/02/26 03:46:59;;;;;;;147.63;60.17;;;-0.30;99.90;1.00;95497.00;;;;4990442;28;20430;-85
2024/02/26 03:49:48;;;;;;;173.50;72.13;;;-0.30;99.90;1.60;95496.00;;;;4993442;28;20461;-85
2024/02/26 03:52:38;;;;;;;147.70;59.63;;;;;1.50;95504.00;;;;4997094;28;20825;-83
2024/02/26 03:55:27;;;;;;;144.53;57.40;;;-0.30;99.90;1.70;95505.00;;;;4994008;28;20434;-84
2024/02/26 03:58:15;;;;;;;146.63;58.53;;;-0.40;99.90;1.40;95502.00;;;;5003996;28;20442;-84
2024/02/26 04:01:05;;;;;;;147.43;58.40;;;;;1.70;95504.00;;;;4988522;28;20497;-84
2024/02/26 04:03:55;;;;;;;158.70;64.57;;;-0.40;99.90;1.40;95492.00;;;;4996157;28;20958;-84
2024/02/26 04:06:46;;;;;;;158.47;64.67;;;-0.40;99.90;1.60;95500.00;;;;4994983;28;20447;-84
2024/02/26 04:09:35;;;;;;;150.80;60.57;;;-0.30;99.90;1.60;95497.00;;;;4980241;28;20473;-84
2024/02/26 04:12:24;;;;;;;150.53;61.13;;;-0.50;99.90;1.00;95498.00;;;;4994469;28;20531;-85
2024/02/26 04:15:13;;;;;;;150.30;59.80;;;-0.60;99.90;1.20;95478.00;;;;5004016;28;20947;-83
2024/02/26 04:18:03;;;;;;;150.17;59.90;;;;;1.40;95499.00;;;;4989844;28;20431;-83
2024/02/26 04:20:53;;;;;;;154.27;64.80;;;-0.60;99.90;0.80;95495.00;;;;4995137;28;20446;-85
2024/02/26 04:23:42;;;;;;;138.27;58.17;;;-0.60;99.90;1.50;95493.00;;;;4992456;28;20476;-85
2024/02/26 04:26:32;;;;;;;134.30;56.30;;;-0.60;99.90;1.40;95507.00;;;;4993725;28;20437;-85
2024/02/26 04:29:21;;;;;;;137.77;57.13;;;-0.50;99.90;1.50;95494.00;;;;5000350;28;20453;-84
2024/02/26 04:32:09;;;;;;;137.03;58.03;;;-0.50;99.90;0.80;95489.00;;;;4987587;28;20446;-85
2024/02/26 04:34:59;;;;;;;144.47;60.90;;;;;1.30;95496.00;;;;4987972;28;20442;-85
2024/02/26 04:37:49;;;;;;;145.10;61.63;;;-0.80;99.90;0.60;95484.00;;;;4993985;28;20430;-85
2024/02/26 04:40:38;;;;;;;136.90;57.00;;;;;1.40;95488.00;;;;4998822;28;20456;-87
2024/02/26 04:43:27;;;;;;;137.80;57.17;;;-1.00;99.90;1.10;95484.00;;;;4986629;28;20410;-85
2024/02/26 04:46:16;;;;;;;137.80;57.30;;;-0.10;99.90;1.20;95505.00;;;;4992570;28;20442;-84
2024/02/26 04:49:05;;;;;;;141.23;60.03;;;-0.80;99.90;0.80;95499.00;;;;4990997;28;20427;-87
2024/02/26 04:51:54;;;;;;;139.30;58.60;;;-0.80;99.90;1.20;95499.00;;;;4989806;28;20862;-85
2024/02/26 04:54:44;;;;;;;131.47;56.70;;;-0.80;99.90;1.10;95495.00;;;;4991361;28;20450;-85
2024/02/26 04:57:33;;;;;;;133.50;55.43;;;-0.80;99.90;1.00;95484.00;;;;4989011;28;20959;-84
2024/02/26 05:00:22;;;;;;;131.17;55.37;;;;;0.50;95493.00;;;;4999060;28;20994;-85
2024/02/26 05:03:13;;;;;;;136.33;57.40;;;-0.90;99.90;1.00;95498.00;;;;4988334;28;20825;-84
2024/02/26 05:06:02;;;;;;;133.43;56.03;;;-0.90;99.90;1.10;95489.00;;;;4994043;28;20437;-84
2024/02/26 05:08:54;;;;;;;145.37;60.47;;;;;1.20;95490.00;;;;4989991;28;20442;-85
2024/02/26 05:11:45;;;;;;;146.53;62.17;;;;;1.10;95492.00;;;;4989201;28;20442;-86
2024/02/26 05:14:34;;;;;;;145.20;60.27;;;;;1.30;95495.00;;;;4994492;28;20488;-86
2024/02/26 05:17:23;;;;;;;145.33;59.40;;;;;1.30;95492.00;;;;4991165;28;21441;-86
2024/02/26 05:20:13;;;;;;;142.07;59.37;;;;;0.80;95492.00;;;;4992358;28;20473;-85
2024/02/26 05:23:03;;;;;;;138.97;57.20;;;;;0.90;95489.00;;;;4989023;28;20878;-87
2024/02/26 05:25:52;;;;;;;139.43;58.80;;;;;0.90;95490.00;;;;4995036;28;20445;-87
2024/02/26 05:28:43;;;;;;;137.07;56.53;;;;;0.90;95496.00;;;;4992892;28;20445;-85
2024/02/26 05:31:32;;;;;;;137.37;55.97;;;;;0.90;95491.00;;;;5006801;28;20421;-87
2024/02/26 05:34:22;;;;;;;131.07;56.20;;;;;0.90;95487.00;;;;5012269;28;20485;-84
2024/02/26 05:37:11;;;;;;;140.60;58.47;;;;;0.90;95491.00;;;;4992910;28;20433;-86
2024/02/26 05:40:01;;;;;;;142.10;60.03;;;;;0.40;95476.00;;;;4989107;28;20463;-84
2024/02/26 05:42:50;;;;;;;145.33;61.07;;;;;0.90;95481.00;;;;4992405;28;20456;-84
2024/02/26 05:45:40;;;;;;;151.07;62.73;;;;;0.70;95488.00;;;;4985852;28;20422;-84
2024/02/26 05:48:32;;;;;;;142.50;59.23;;;;;0.50;95487.00;;;;4993356;28;21002;-84
2024/02/26 05:51:21;;;;;;;247.83;124.80;;;;;0.70;95485.00;;;;4954379;28;20430;-83
2024/02/26 05:54:10;;;;;;;143.57;58.93;;;;;0.80;95490.00;;;;4994843;28;20470;-85
2024/02/26 05:56:59;;;;;;;155.33;62.93;;;;;1.00;95490.00;;;;4993332;28;20430;-86
2024/02/26 05:59:48;;;;;;;164.50;67.63;;;;;1.00;95504.00;;;;4995116;28;20473;-85
2024/02/26 06:02:39;;;;;;;280.37;144.87;;;;;1.10;95502.00;;;;4951096;28;21812;-84
2024/02/26 06:05:28;;;;;;;142.53;58.93;;;;;1.30;95499.00;;;;4977244;28;21017;-84
2024/02/26 06:08:17;;;;;;;139.70;57.73;;;;;1.40;95513.00;;;;4992312;28;21008;-84
2024/02/26 06:11:07;;;;;;;145.47;59.53;;;;;1.40;95507.00;;;;4988805;28;20473;-84
2024/02/26 06:13:57;;;;;;;145.07;60.63;;;;;1.30;95498.00;;;;5000415;28;20477;-84
2024/02/26 06:16:48;;;;;;;321.60;167.00;;;;;1.50;95509.00;;;;4960083;28;20460;-84
2024/02/26 06:19:38;;;;;;;150.87;60.50;;;;;1.40;95513.00;;;;4990196;28;20448;-84
2024/02/26 06:22:28;;;;;;;148.90;59.50;;;;;1.40;95521.00;;;;4978731;28;20448;-83
2024/02/26 06:25:17;;;;;;;189.53;82.40;;;;;1.60;95520.00;;;;4985712;28;20826;-84
2024/02/26 06:28:07;;;;;;;250.23;115.63;;;;;1.90;95534.00;;;;4964953;28;22577;-83
2024/02/26 06:30:56;;;;;;;151.83;60.80;;;;;2.00;95537.00;;;;4966043;28;20470;-83
2024/02/26 06:33:45;;;;;;;148.43;61.07;;;;;1.80;95527.00;;;;4990962;28;20472;-84
2024/02/26 06:36:36;;;;;;;292.67;146.87;;;;;2.10;95536.00;;;;4944389;28;20438;-85
2024/02/26 06:39:26;;;;;;;352.40;192.57;;;;;2.20;95545.00;;;;4917750;28;20516;-84
2024/02/26 06:42:15;;;;;;;152.63;61.30;;;;;2.30;95544.00;;;;4938715;28;20446;-84
2024/02/26 06:45:07;;;;;;;301.37;156.30;;;;;2.20;95549.00;;;;4910829;28;20541;-85
2024/02/26 06:47:56;;;;;;;332.80;172.00;;;;;2.10;95554.00;;;;4908447;28;20961;-84
2024/02/26 06:50:47;;;;;;;283.90;136.10;;;;;2.20;95563.00;;;;4917854;28;22005;-83
2024/02/26 06:53:37;;;;;;;293.33;140.77;;;;;2.20;95562.00;;;;4927623;28;20470;-86
2024/02/26 06:56:27;;;;;;;232.27;108.80;;;;;2.10;95553.00;;;;4927572;28;20454;-83
2024/02/26 06:59:16;;;;;;;311.23;157.33;;;;;1.80;95562.00;;;;4925661;28;20478;-86
2024/02/26 07:02:05;;;;;;;285.27;137.57;;;;;1.90;95558.00;;;;4919254;28;20460;-86
2024/02/26 07:04:56;;;;;;;312.13;155.60;;;;;2.20;95563.00;;;;4920372;28;20447;-85
2024/02/26 07:07:48;;;;;;;289.50;138.57;;;;;2.10;95552.00;;;;4920685;28;20689;-87
2024/02/26 07:10:38;;;;;;;348.93;179.97;;;;;1.60;95558.00;;;;4922603;28;20442;-86
2024/02/26 07:13:29;;;;;;;164.03;61.17;;;;;1.80;95550.00;;;;4951004;28;20438;-87
2024/02/26 07:16:19;;;;;;;164.37;62.50;;;;;2.20;95555.00;;;;4992461;28;20433;-87
2024/02/26 07:19:08;;;;;;;248.37;113.33;;;;;2.30;95559.00;;;;4982440;28;20441;-87
2024/02/26 07:21:57;;;;;;;312.43;155.17;;;;;2.20;95558.00;;;;4986923;28;20434;-83
2024/02/26 07:24:47;;;;;;;300.37;146.17;;;;;2.60;95556.00;;;;4914758;28;21026;-84
2024/02/26 07:27:37;;;;;;;382.87;199.07;;;;;2.20;95567.00;;;;4909458;28;20427;-84
2024/02/26 07:30:29;;;;;;;361.67;189.00;;;;;2.50;95561.00;;;;4907615;28;20814;-85
2024/02/26 07:33:18;;;;;;;316.77;149.30;;;;;2.70;95544.00;;;;4905442;28;20482;-85
2024/02/26 07:36:08;;;;;;;339.47;164.87;;;;;3.10;95548.00;;;;4906674;28;20470;-84
2024/02/26 07:38:58;;;;;;;326.13;162.87;;;;;3.20;95547.00;;;;4911278;28;21053;-84
2024/02/26 07:41:49;;;;;;;358.30;176.90;;;;;3.20;95558.00;;;;4910894;28;20716;-87
2024/02/26 07:44:43;;;;;;;336.63;154.53;;;;;3.60;95567.00;;;;4911566;28;20911;-85
2024/02/26 07:47:34;;;;;;;422.10;200.27;;;;;3.70;95569.00;;;;4914440;28;20545;-84
2024/02/26 07:50:23;;;;;;;302.83;121.90;;;;;3.70;95571.00;;;;4907191;28;21035;-85
2024/02/26 07:53:13;;;;;;;395.07;187.83;;;;;3.20;95569.00;;;;4912505;28;20520;-84
2024/02/26 07:56:03;;;;;;;313.83;125.60;;;;;3.40;95573.00;;;;4904554;28;21926;-83
2024/02/26 07:58:52;;;;;;;430.80;196.47;;;;;3.60;95564.00;;;;4916326;28;20533;-85
2024/02/26 08:01:49;;;;;;;416.27;182.57;;;;;3.80;95576.00;;;;4912633;28;21577;-83
2024/02/26 08:04:40;;;;;;;278.67;104.93;;;;;4.00;95587.00;;;;4956697;28;20462;-85
2024/02/26 08:07:32;;;;;;;401.13;176.17;;;;;4.10;95582.00;;;;4923018;28;20450;-87
2024/02/26 08:10:21;;;;;;;419.77;193.13;;;;;4.70;95593.00;;;;4914678;28;20451;-84
2024/02/26 08:13:11;;;;;;;403.30;180.90;;;;;4.80;95596.00;;;;4915973;28;20554;-85
2024/02/26 08:16:00;;;;;;;355.43;148.17;;;;;5.00;95584.00;;;;4975715;28;20471;-83
2024/02/26 08:18:52;;;;;;;383.63;167.77;;;;;5.00;95584.00;;;;4970007;28;20434;-85
2024/02/26 08:21:41;;;;;;;409.00;196.73;;;;;5.30;95580.00;;;;4912642;28;20429;-86
2024/02/26 08:24:33;;;;;;;406.17;179.07;;;;;5.40;95568.00;;;;4913328;28;20427;-86
2024/02/26 08:27:22;;;;;;;425.53;196.20;;;;;6.10;95581.00;;;;4914333;28;20546;-84
2024/02/26 08:30:16;;;;;;;411.97;191.17;;;;;6.10;95584.00;;;;4919018;28;20492;-84
2024/02/26 08:33:08;;;;;;;442.00;198.20;;;;;6.10;95579.00;;;;4910725;28;20473;-87
2024/02/26 08:35:59;;;;;;;480.13;239.87;;;;;6.40;95576.00;;;;4908833;28;20558;-85
2024/02/26 08:38:48;;;;;;;351.17;142.07;;;;;6.40;95579.00;;;;4910170;28;20813;-83
2024/02/26 08:41:38;;;;;;;317.00;111.87;;;;;6.30;95581.00;;;;4965781;28;20439;-85
2024/02/26 08:44:27;;;;;;;472.07;214.70;;;;;7.00;95591.00;;;;4920884;28;20317;-87
2024/02/26 08:47:16;;;;;;;435.87;197.07;;;;;7.50;95583.00;;;;4904314;28;20370;-83
2024/02/26 08:50:09;;;;;;;472.50;210.87;;;;;7.70;95582.00;;;;4909940;28;20240;-87
2024/02/26 08:53:04;;;;;;;463.83;210.43;;;;;7.40;95577.00;;;;4907715;28;20198;-87
2024/02/26 08:55:55;;;;;;;398.97;166.17;;;;;7.70;95594.00;;;;4901445;28;20365;-86
2024/02/26 08:58:44;;;;;;;482.47;218.97;;;;;8.50;95596.00;;;;4911341;28;20204;-85
2024/02/26 09:01:33;;;;;;;370.87;139.17;;;;;8.50;95591.00;;;;4909356;28;20238;-85
2024/02/26 09:04:23;;;;;;;454.77;198.53;;;;;8.50;95591.00;;;;4923942;28;20250;-85
2024/02/26 09:07:16;;;;;;;401.03;157.87;;;;;8.80;95585.00;;;;4912821;28;21278;-84
2024/02/26 09:10:12;;;;;;;455.97;203.97;;;;;9.30;95592.00;;;;4917177;28;20227;-85
2024/02/26 09:13:01;;;;;;;407.23;165.90;;;;;9.70;95593.00;;;;4911975;28;20285;-86
2024/02/26 09:15:54;;;;;;;496.83;230.10;;;;;9.90;95591.00;;;;4924429;28;20234;-84
2024/02/26 09:18:47;;;;;;;470.70;211.43;;;;;10.10;95591.00;;;;4913489;28;20214;-85
2024/02/26 09:21:36;;;;;;;474.90;206.10;;;;;10.40;95592.00;;;;4912473;28;20267;-85
2024/02/26 09:24:25;;;;;;;473.13;205.50;;;;;10.60;95593.00;;;;4920040;28;21264;-85
2024/02/26 09:27:16;;;;;;;446.03;180.43;;;;;10.80;95588.00;;;;4919259;28;20210;-85
2024/02/26 09:30:07;;;;;;;489.77;217.10;;;;;11.10;95600.00;;;;4917511;28;20266;-85
2024/02/26 09:32:59;;;;;;;498.90;220.67;;;;;11.20;95605.00;;;;4911562;28;20207;-85
2024/02/26 09:35:49;;;;;;;485.53;216.40;;;;;11.40;95598.00;;;;4916326;28;20226;-85
2024/02/26 09:38:39;;;;;;;432.50;172.97;;;;;11.40;95602.00;;;;4912274;28;21706;-84
2024/02/26 09:41:53;;;;;;;501.43;227.30;;;;;11.50;95595.00;;;;4919351;28;20270;-85
2024/02/26 09:44:45;;;;;;;460.07;203.33;;;;;11.40;95600.00;;;;4909493;28;20238;-85
2024/02/26 09:47:35;;;;;;;444.97;191.17;;;;;11.50;95607.00;;;;4915804;28;21903;-85
2024/02/26 09:50:24;;;;;;;468.10;209.23;;;;;11.60;95609.00;;;;4918373;28;20231;-85
2024/02/26 09:53:18;;;;;;;482.77;216.53;;;;;11.90;95614.00;;;;4919554;28;20206;-85
2024/02/26 09:56:08;;;;;;;462.43;202.07;;;;;11.60;95605.00;;;;4920919;28;20249;-85
2024/02/26 09:59:04;;;;;;;496.20;225.63;;;;;11.80;95605.00;;;;4917364;28;20486;-84
2024/02/26 10:01:55;;;;;;;497.63;227.87;;;;;12.70;95612.00;;;;4923535;28;20202;-84
2024/02/26 10:04:45;;;;;;;496.87;233.07;;;;;12.90;95612.00;;;;4913304;28;20207;-84
2024/02/26 10:07:39;;;;;;;448.87;195.80;;;;;12.80;95619.00;;;;4917273;28;20206;-83
2024/02/26 10:10:34;;;;;;;510.00;237.20;;;;;13.20;95624.00;;;;4919290;28;20222;-83
2024/02/26 10:13:26;;;;;;;494.60;224.60;;;;;13.20;95613.00;;;;4913547;28;20293;-85
2024/02/26 10:16:18;;;;;;;483.47;214.47;;;;;13.40;95616.00;;;;4916608;28;20226;-85
2024/02/26 10:19:09;;;;;;;504.87;234.93;;;;;14.00;95610.00;;;;4918805;28;20290;-85
2024/02/26 10:22:01;;;;;;;448.43;186.17;;;;;13.80;95621.00;;;;4915091;28;22112;-85
2024/02/26 10:24:50;;;;;;;496.63;230.70;;;;;13.40;95611.00;;;;4922530;28;20226;-85
2024/02/26 10:27:42;;;;;;;452.53;204.70;;;;;12.10;95606.00;;;;4904078;28;20200;-86
2024/02/26 10:30:32;;;;;;;540.67;265.53;;;;;13.80;95623.00;;;;4906135;28;20245;-85
2024/02/26 10:33:21;;;;;;;432.40;180.93;;;;;13.60;95622.00;;;;4860747;28;1217880;-85
2024/02/26 10:36:12;;;;;;;489.37;227.97;;;;;13.60;95620.00;;;;4916421;28;20398;-87
2024/02/26 10:39:03;;;;;;;445.87;192.83;;;;;12.80;95619.00;;;;4925313;28;20266;-85
2024/02/26 10:41:55;;;;;;;506.90;241.87;;;;;13.30;95611.00;;;;4907508;28;20241;-86
2024/02/26 10:44:48;;;;;;;479.33;220.10;;;;;13.80;95621.00;;;;4913903;28;20211;-84
2024/02/26 10:47:38;;;;;;;487.10;220.73;;;;;14.10;95612.00;;;;4914864;28;20301;-85
2024/02/26 10:50:27;;;;;;;505.10;240.83;;;;;13.60;95616.00;;;;4907006;28;20783;-85
2024/02/26 10:53:24;;;;;;;504.40;239.57;;;;;14.30;95623.00;;;;4905680;28;20322;-84
2024/02/26 10:56:13;;;;;;;542.90;268.17;;;;;15.00;95604.00;;;;4908811;28;20219;-85
2024/02/26 10:59:09;;;;;;;505.13;241.67;;;;;15.90;95601.00;;;;4905443;28;20207;-85
2024/02/26 11:01:59;;;;;;;488.97;233.30;;;;;16.50;95604.00;;;;4904891;28;21596;-84
2024/02/26 11:04:49;;;;;;;526.47;264.73;;;;;16.60;95599.00;;;;4912555;28;20624;-86
2024/02/26 11:07:39;;;;;;;472.53;220.17;;;;;17.00;95610.00;;;;4902277;28;21263;-83
2024/02/26 11:10:31;;;;;;;540.37;281.87;;;;;16.30;95605.00;;;;4908926;28;20777;-84
2024/02/26 11:13:23;;;;;;;438.80;212.20;;;;;15.90;95603.00;;;;4900015;28;20235;-86
2024/02/26 11:16:12;;;;;;;527.53;276.77;;;;;16.70;95614.00;;;;4910648;28;20223;-85
2024/02/26 11:19:02;;;;;;;486.27;253.30;;;;;16.60;95602.00;;;;4904682;28;20198;-84
2024/02/26 11:21:51;;;;;;;566.47;315.47;;;;;17.00;95600.00;;;;4905476;28;20211;-83
2024/02/26 11:24:44;;;;;;;497.07;268.20;;;;;16.60;95613.00;;;;4900002;28;20275;-84
2024/02/26 11:27:36;;;;;;;569.27;317.97;;;;;16.40;95611.00;;;;4908740;28;20245;-86
2024/02/26 11:30:27;;;;;;;545.00;300.60;;;;;16.40;95612.00;;;;4907024;28;20257;-84
2024/02/26 11:33:23;;;;;;;533.33;293.23;;;;;16.30;95598.00;;;;4899408;28;20270;-84
2024/02/26 11:36:14;;;;;;;552.53;306.97;;;;;16.50;95602.00;;;;4901731;28;20317;-85
2024/02/26 11:39:04;;;;;;;517.23;277.90;;;;;16.30;95591.00;;;;4898756;28;20647;-83
2024/02/26 11:41:53;;;;;;;556.73;302.97;;;;;15.90;95576.00;;;;4902952;28;20684;-83
2024/02/26 11:44:44;;;;;;;374.27;170.67;;;;;13.80;95584.00;;;;4923891;28;20287;-86
2024/02/26 11:47:36;;;;;;;487.37;249.13;;;;;14.40;95602.00;;;;4957453;28;20199;-84
2024/02/26 11:50:36;;;;;;;453.27;223.93;;;;;14.40;95605.00;;;;4915612;28;20507;-83
2024/02/26 11:53:30;;;;;;;463.43;229.50;;;;;15.40;95603.00;;;;4916273;28;20402;-83
2024/02/26 11:56:24;;;;;;;375.93;157.57;;;;;15.60;95594.00;;;;4979031;28;20650;-85
2024/02/26 11:59:13;;;;;;;377.27;160.00;;;;;16.00;95605.00;;;;4987318;28;20231;-84
2024/02/26 12:02:04;;;;;;;508.70;261.77;;;;;15.50;95601.00;;;;4926743;28;20217;-84
2024/02/26 12:04:53;;;;;;;454.77;215.33;;;;;16.10;95583.00;;;;4919012;28;21830;-83
2024/02/26 12:07:48;;;;;;;372.20;156.87;;;;;16.60;95594.00;;;;4945307;28;20286;-85
2024/02/26 12:10:39;;;;;;;508.27;261.40;;;;;17.00;95584.00;;;;4968603;28;20223;-87
2024/02/26 12:13:32;;;;;;;434.67;208.80;;;;;17.40;95596.00;;;;4932445;28;20218;-84
2024/02/26 12:16:37;;;;;;;479.33;249.50;;;;;16.90;95605.00;;;;4921194;28;20231;-85
2024/02/26 12:19:29;;;;;;;464.23;236.90;;;;;16.70;95590.00;;;;4920197;28;20229;-88
2024/02/26 12:22:22;;;;;;;493.97;255.57;;;;;16.20;95592.00;;;;4931737;28;20459;-83
2024/02/26 12:25:11;;;;;;;508.50;266.23;;;;;16.60;95593.00;;;;4912973;28;20208;-83
2024/02/26 12:28:01;;;;;;;526.10;279.50;;;;;16.50;95594.00;;;;4911856;28;21001;-84
2024/02/26 12:30:50;;;;;;;499.47;260.50;;;;;16.20;95578.00;;;;4928300;28;21949;-83
2024/02/26 12:33:39;;;;;;;461.03;230.23;;;;;17.40;95549.00;;;;4913171;28;22963;-83
2024/02/26 12:36:32;;;;;;;493.83;255.33;;;;;17.90;95552.00;;;;4920395;28;20256;-84
2024/02/26 12:39:21;;;;;;;498.47;272.40;;;;;19.60;95559.00;;;;4909033;28;20350;-84
2024/02/26 12:42:11;;;;;;;506.63;295.67;;;;;20.00;95573.00;;;;4910263;28;20494;-85
2024/02/26 12:45:02;;;;;;;496.20;301.33;;;;;20.40;95588.00;;;;4919529;28;20214;-83
2024/02/26 12:47:51;;;;;;;520.47;332.73;;;;;20.50;95582.00;;;;4915742;28;20253;-83
2024/02/26 12:50:40;;;;;;;391.57;261.70;;;;;21.40;95581.00;;;;4916659;28;20317;-85
2024/02/26 12:53:31;;;;;;;426.33;303.50;;;;;21.40;95585.00;;;;4961519;28;20203;-84
2024/02/26 12:56:20;;;;;;;410.23;303.57;;;;;21.50;95586.00;;;;4965031;28;20209;-85
2024/02/26 12:59:10;;;;;;;414.93;329.83;;;;;21.80;95578.00;;;;4972542;28;20202;-86
2024/02/26 13:01:59;;;;;;;420.20;345.43;;;;;22.40;95585.00;;;;4968192;28;20761;-86
2024/02/26 13:04:48;;;;;;;428.43;360.30;;;;;20.80;95587.00;;;;4975729;28;20210;-86
2024/02/26 13:07:46;;;;;;;427.97;364.97;;;;;21.50;95607.00;;;;4968208;28;20198;-86
2024/02/26 13:10:37;;;;;;;415.47;360.93;;;;;21.70;95587.00;;;;4938667;28;20223;-86
2024/02/26 13:13:26;;;;;;;458.43;391.20;;;;;21.30;95590.00;;;;4976159;28;20210;-86
2024/02/26 13:16:16;;;;;;;568.13;460.30;;;;;18.10;95574.00;;;;4910394;28;20223;-86
2024/02/26 13:19:12;;;;;;;509.50;408.93;;;;;16.40;95556.00;;;;4884373;28;21482;-86
2024/02/26 13:22:06;;;;;;;552.83;407.63;;;;;15.60;95588.00;;;;4895025;28;20206;-83
2024/02/26 13:24:56;;;;;;;570.23;381.20;;;;;14.70;95611.00;;;;4899069;28;20635;-84
2024/02/26 13:27:47;;;;;;;464.87;285.97;;;14.40;73.90;15.30;95612.00;;;;4894204;28;21220;-83
2024/02/26 13:30:39;;;;;;;571.10;352.10;;;14.00;74.40;14.30;95591.00;;;;4902331;28;20247;-84
2024/02/26 13:33:29;;;;;;;492.00;265.07;;;13.40;75.30;14.00;95609.00;;;;4902302;28;20310;-85